Time;durP1;ratioP1;P1;durP2;ratioP2;P2;SDS_P1;SDS_P2;PMS_P1;PMS_P2;Temp;Humidity;BMP_temperature;BMP_pressure;BME280_temperature;BME280_humidity;BME280_pressure;Samples;Min_cycle;Max_cycle;Signal;HPM_P1;HPM_P2
2021/11/17 02:29:31;;;;;;;3.90;1.90;;;10.40;72.60;;;;;;2547763;53;20935;-70
2021/11/17 02:33:55;;;;;;;5.12;1.77;;;10.40;72.60;;;;;;2558628;54;21238;-71
2021/11/17 02:39:13;;;;;;;4.30;1.40;;;10.40;72.10;;;;;;2296545;54;20975;-70
2021/11/17 02:42:12;;;;;;;3.28;1.30;;;10.40;72.00;;;;;;2571424;53;20949;-71
2021/11/17 02:48:25;;;;;;;4.20;1.62;;;10.40;72.40;;;;;;2570944;53;20932;-70
2021/11/17 02:54:11;;;;;;;2.70;1.15;;;10.30;72.60;;;;;;2305816;54;21030;-70
2021/11/17 02:57:39;;;;;;;2.87;1.30;;;10.40;72.70;;;;;;2544915;53;20947;-70
2021/11/17 03:00:38;;;;;;;2.92;1.20;;;10.30;72.60;;;;;;2520466;54;20986;-70
2021/11/17 03:04:46;;;;;;;3.75;1.77;;;10.30;72.70;;;;;;2306995;54;21109;-70
2021/11/17 03:07:53;;;;;;;3.92;1.85;;;10.30;72.90;;;;;;2548608;53;20981;-70
2021/11/17 03:11:10;;;;;;;4.37;1.95;;;10.30;72.60;;;;;;2364627;54;20963;-70
2021/11/17 03:17:02;;;;;;;3.90;1.77;;;10.30;72.10;;;;;;2616321;52;21219;-69
2021/11/17 03:24:51;;;;;;;3.67;1.70;;;10.30;71.90;;;;;;2351951;53;20940;-70
2021/11/17 03:31:25;;;;;;;2.62;1.10;;;10.30;72.50;;;;;;2364332;53;20940;-70
2021/11/17 03:38:51;;;;;;;3.17;1.40;;;10.30;72.10;;;;;;2365832;53;20923;-70
2021/11/17 03:41:44;;;;;;;2.80;1.15;;;10.30;72.20;;;;;;2616146;52;20943;-70
2021/11/17 03:44:57;;;;;;;3.78;1.67;;;10.30;72.90;;;;;;2366524;53;20964;-70
2021/11/17 03:48:12;;;;;;;3.83;1.80;;;10.30;72.80;;;;;;2615175;52;21854;-70
2021/11/17 03:53:41;;;;;;;3.25;1.35;;;10.30;73.10;;;;;;2348745;54;21752;-70
2021/11/17 03:56:34;;;;;;;3.90;1.62;;;10.30;72.30;;;;;;2615668;52;21530;-70
2021/11/17 03:59:39;;;;;;;4.30;1.95;;;10.30;72.90;;;;;;2364403;53;21012;-70
2021/11/17 04:05:23;;;;;;;4.12;2.00;;;10.30;72.80;;;;;;2595393;52;20968;-70
2021/11/17 04:09:39;;;;;;;3.37;1.60;;;10.30;72.40;;;;;;2358396;53;21503;-70
2021/11/17 04:12:35;;;;;;;4.45;2.08;;;10.30;72.90;;;;;;2615868;52;21964;-70
2021/11/17 04:17:57;;;;;;;4.35;2.17;;;10.30;72.80;;;;;;2345691;53;21000;-69
2021/11/17 04:22:41;;;;;;;3.83;1.90;;;10.30;72.90;;;;;;2586355;52;20960;-70
2021/11/17 04:30:52;;;;;;;3.80;1.73;;;10.30;72.50;;;;;;2364907;54;21740;-71
2021/11/17 04:33:53;;;;;;;3.08;1.45;;;10.30;72.30;;;;;;2614104;52;21502;-70
2021/11/17 04:36:35;;;;;;;3.83;1.70;;;10.10;72.40;;;;;;2585955;53;21545;-70
2021/11/17 04:41:58;;;;;;;5.28;2.30;;;10.30;72.80;;;;;;2568564;53;20956;-70
2021/11/17 04:46:22;;;;;;;4.12;1.58;;;10.30;72.20;;;;;;2344114;55;20995;-70
2021/11/17 04:49:11;;;;;;;4.90;2.12;;;10.30;72.20;;;;;;2601524;52;20943;-70
2021/11/17 04:54:17;;;;;;;5.10;2.45;;;10.30;72.70;;;;;;2343946;54;20934;-70
2021/11/17 05:00:03;;;;;;;4.90;2.10;;;10.30;72.40;;;;;;2326873;53;21035;-70
2021/11/17 05:08:01;;;;;;;3.67;1.40;;;10.30;72.80;;;;;;2357964;53;21003;-70
2021/11/17 05:11:18;;;;;;;4.80;1.83;;;10.30;72.20;;;;;;2596034;52;21936;-70
2021/11/17 05:14:55;;;;;;;6.00;2.47;;;10.30;72.40;;;;;;2363569;53;20955;-70
2021/11/17 05:17:38;;;;;;;4.93;2.28;;;10.30;72.40;;;;;;2561017;53;20970;-70
2021/11/17 05:20:37;;;;;;;4.57;2.35;;;10.30;73.00;;;;;;2344577;53;20997;-69
2021/11/17 05:24:46;;;;;;;5.70;2.55;;;10.30;72.80;;;;;;2568473;53;21011;-70
2021/11/17 05:29:04;;;;;;;4.93;2.50;;;10.30;72.90;;;;;;2319258;53;21042;-70
2021/11/17 05:32:07;;;;;;;4.15;2.00;;;10.30;72.80;;;;;;2584702;52;20996;-70
2021/11/17 05:35:01;;;;;;;4.35;1.98;;;10.30;72.70;;;;;;2352488;53;20991;-70
2021/11/17 05:42:42;;;;;;;6.18;2.45;;;10.30;72.90;;;;;;2565264;53;21017;-70
2021/11/17 05:45:41;;;;;;;3.72;1.50;;;10.30;73.00;;;;;;2587278;52;20945;-70
2021/11/17 05:48:27;;;;;;;4.12;2.12;;;10.30;72.60;;;;;;2575501;53;20985;-71
2021/11/17 05:51:58;;;;;;;4.55;2.20;;;10.30;72.80;;;;;;2590115;52;21044;-71
2021/11/17 05:55:12;;;;;;;3.80;1.92;;;10.30;72.40;;;;;;2343647;54;21824;-70
2021/11/17 05:58:43;;;;;;;7.22;3.95;;;10.30;72.60;;;;;;2586718;52;21016;-70
2021/11/17 06:02:13;;;;;;;6.95;3.05;;;10.30;72.60;;;;;;2585704;52;20909;-70
2021/11/17 06:04:39;;;;;;;4.78;2.45;;;10.30;72.60;;;;;;2349504;53;20938;-70
2021/11/17 06:07:05;;;;;;;6.28;2.83;;;10.30;72.90;;;;;;2588990;53;20966;-70
2021/11/17 06:09:31;;;;;;;4.75;2.37;;;10.20;72.90;;;;;;2345205;53;21020;-70
2021/11/17 06:12:03;;;;;;;4.85;2.50;;;10.20;73.00;;;;;;2548318;53;20979;-70
2021/11/17 06:14:38;;;;;;;5.90;3.20;;;10.20;72.90;;;;;;2323403;54;21062;-70
2021/11/17 06:17:16;;;;;;;5.28;2.30;;;10.20;72.80;;;;;;2615628;52;21673;-69
2021/11/17 06:19:45;;;;;;;4.85;2.65;;;10.20;72.80;;;;;;2617012;52;21002;-70
2021/11/17 06:22:12;;;;;;;5.05;2.47;;;10.20;72.90;;;;;;2368850;53;21074;-70
2021/11/17 06:24:38;;;;;;;5.03;2.67;;;10.20;72.90;;;;;;2363108;53;20941;-70
2021/11/17 06:27:06;;;;;;;5.40;2.50;;;10.20;72.90;;;;;;2584169;53;20904;-70
2021/11/17 06:29:37;;;;;;;6.25;2.72;;;10.20;72.80;;;;;;2335831;54;21054;-71
2021/11/17 06:32:04;;;;;;;4.55;2.42;;;10.20;72.80;;;;;;2617563;52;21507;-70
2021/11/17 06:34:41;;;;;;;5.40;2.92;;;10.20;72.90;;;;;;2369650;53;21019;-70
2021/11/17 06:37:25;;;;;;;5.53;3.00;;;10.30;72.90;;;;;;2345986;53;20961;-70
2021/11/17 06:39:53;;;;;;;4.85;2.60;;;10.20;72.90;;;;;;2572889;52;21555;-70
2021/11/17 06:42:33;;;;;;;4.03;2.20;;;10.20;72.80;;;;;;2575064;53;21760;-70
2021/11/17 06:45:01;;;;;;;5.03;2.45;;;10.30;72.80;;;;;;2342228;53;21411;-70
2021/11/17 06:47:27;;;;;;;5.18;2.47;;;10.30;73.10;;;;;;2586071;52;21032;-71
2021/11/17 06:49:54;;;;;;;4.43;2.25;;;10.30;73.10;;;;;;2601102;52;21007;-70
2021/11/17 06:52:21;;;;;;;4.72;2.58;;;10.40;73.20;;;;;;2343341;53;20919;-70
2021/11/17 06:54:47;;;;;;;3.65;1.90;;;10.30;73.10;;;;;;2330501;53;20964;-71
2021/11/17 06:57:18;;;;;;;4.45;1.98;;;10.30;73.10;;;;;;2582794;52;21557;-70
2021/11/17 06:59:45;;;;;;;4.75;2.28;;;10.30;73.10;;;;;;2334497;54;20923;-70
2021/11/17 07:02:12;;;;;;;5.22;2.50;;;10.30;73.20;;;;;;2583688;53;20974;-71
2021/11/17 07:04:39;;;;;;;3.85;2.20;;;10.30;73.20;;;;;;2343761;55;21404;-70
2021/11/17 07:07:09;;;;;;;4.80;2.62;;;10.30;73.20;;;;;;2570944;53;21032;-70
2021/11/17 07:09:36;;;;;;;4.28;2.33;;;10.30;73.10;;;;;;2340505;53;20992;-71
2021/11/17 07:12:02;;;;;;;5.05;2.33;;;10.30;73.20;;;;;;2341648;54;21034;-71
2021/11/17 07:14:30;;;;;;;5.53;2.05;;;10.30;73.10;;;;;;2328972;53;21016;-70
2021/11/17 07:16:57;;;;;;;4.82;2.45;;;10.30;73.10;;;;;;2357637;53;20958;-70
2021/11/17 07:19:26;;;;;;;4.68;2.30;;;10.30;73.20;;;;;;2357976;53;21040;-71
2021/11/17 07:21:54;;;;;;;6.18;2.78;;;10.40;73.10;;;;;;2348655;53;20970;-70
2021/11/17 07:24:21;;;;;;;4.32;2.10;;;10.40;73.10;;;;;;2366837;53;20934;-70
2021/11/17 07:26:50;;;;;;;5.10;2.55;;;10.40;73.10;;;;;;2618274;52;20943;-71
2021/11/17 07:29:16;;;;;;;5.47;2.25;;;10.40;73.10;;;;;;2596990;52;21572;-71
2021/11/17 07:31:42;;;;;;;5.35;2.50;;;10.40;73.00;;;;;;2582509;52;20985;-70
2021/11/17 07:34:09;;;;;;;4.85;2.45;;;10.40;73.00;;;;;;2364948;53;20937;-70
2021/11/17 07:36:36;;;;;;;4.75;2.58;;;10.40;72.90;;;;;;2347530;53;21016;-70
2021/11/17 07:39:03;;;;;;;4.72;2.40;;;10.40;72.80;;;;;;2366581;54;20984;-70
2021/11/17 07:41:32;;;;;;;5.50;2.78;;;10.40;72.80;;;;;;2365108;54;20995;-70
2021/11/17 07:43:59;;;;;;;5.20;2.45;;;10.40;72.80;;;;;;2593032;52;21040;-71
2021/11/17 07:46:26;;;;;;;4.68;2.30;;;10.40;72.80;;;;;;2347200;53;20972;-70
2021/11/17 07:49:02;;;;;;;5.53;2.70;;;10.40;72.90;;;;;;2613131;52;20923;-70
2021/11/17 07:51:28;;;;;;;4.82;2.30;;;10.40;72.60;;;;;;2366196;53;20936;-70
2021/11/17 07:53:54;;;;;;;4.25;2.22;;;10.40;72.80;;;;;;2370494;53;21026;-70
2021/11/17 07:56:21;;;;;;;4.35;2.53;;;10.40;72.90;;;;;;2609775;52;20960;-71
2021/11/17 07:58:47;;;;;;;7.32;3.05;;;10.40;72.90;;;;;;2349305;53;20944;-71
2021/11/17 08:01:14;;;;;;;5.68;2.92;;;10.40;72.90;;;;;;2357925;53;20923;-70
2021/11/17 08:03:41;;;;;;;5.78;3.12;;;10.40;72.90;;;;;;2356668;53;21157;-70
2021/11/17 08:06:13;;;;;;;5.80;3.17;;;10.40;72.90;;;;;;2592222;52;20920;-70
2021/11/17 08:08:39;;;;;;;6.22;3.40;;;10.40;72.90;;;;;;2355605;53;20989;-71
2021/11/17 08:11:07;;;;;;;6.78;4.32;;;10.40;73.00;;;;;;2588876;52;21790;-70
2021/11/17 08:13:33;;;;;;;7.22;3.75;;;10.40;73.00;;;;;;2366680;54;20963;-71
2021/11/17 08:16:01;;;;;;;6.20;3.40;;;10.40;73.00;;;;;;2354021;53;20942;-71
2021/11/17 08:18:27;;;;;;;6.22;3.65;;;10.40;73.00;;;;;;2597312;52;20919;-71
2021/11/17 08:20:54;;;;;;;6.10;3.37;;;10.40;73.10;;;;;;2359054;53;21945;-71
2021/11/17 08:23:21;;;;;;;5.62;3.08;;;10.40;73.10;;;;;;2332919;54;20919;-70
2021/11/17 08:25:47;;;;;;;6.00;2.90;;;10.40;73.00;;;;;;2594399;52;20935;-71
2021/11/17 08:28:14;;;;;;;7.15;4.35;;;10.40;73.00;;;;;;2616359;52;20981;-70
2021/11/17 08:30:40;;;;;;;7.57;3.62;;;10.40;73.00;;;;;;2618032;52;20939;-70
2021/11/17 08:33:08;;;;;;;6.62;3.87;;;10.40;73.00;;;;;;2601222;52;21871;-70
2021/11/17 08:35:35;;;;;;;7.03;3.80;;;10.40;72.90;;;;;;2591841;52;21181;-71
2021/11/17 08:38:02;;;;;;;6.50;3.67;;;10.40;72.70;;;;;;2606979;52;21068;-71
2021/11/17 08:40:31;;;;;;;6.90;3.17;;;10.40;72.70;;;;;;2583751;53;20948;-71
2021/11/17 08:42:57;;;;;;;5.95;3.30;;;10.40;72.80;;;;;;2345926;54;21157;-71
2021/11/17 08:45:24;;;;;;;5.78;3.25;;;10.40;72.80;;;;;;2369338;53;20933;-71
2021/11/17 08:47:52;;;;;;;6.03;2.67;;;10.40;72.90;;;;;;2364302;53;20940;-70
2021/11/17 08:50:21;;;;;;;5.47;2.80;;;10.40;72.90;;;;;;2365064;54;21654;-71
2021/11/17 08:52:51;;;;;;;4.75;2.78;;;10.40;72.90;;;;;;2346083;53;21036;-71
2021/11/17 08:55:18;;;;;;;4.75;2.58;;;10.40;72.80;;;;;;2352164;53;20915;-71
2021/11/17 08:57:46;;;;;;;5.32;2.55;;;10.40;72.90;;;;;;2606633;52;20948;-70
2021/11/17 09:00:14;;;;;;;5.65;2.40;;;10.40;72.90;;;;;;2594139;52;20969;-71
2021/11/17 09:02:46;;;;;;;5.35;2.55;;;10.40;73.60;;;;;;2592628;52;21398;-71
2021/11/17 09:05:16;;;;;;;4.80;2.10;;;10.40;72.90;;;;;;2350479;53;20962;-71
2021/11/17 09:07:44;;;;;;;5.85;2.28;;;10.50;73.10;;;;;;2365110;54;21019;-70
2021/11/17 09:10:33;;;;;;;4.03;2.03;;;10.40;73.10;;;;;;2362903;53;21301;-71
2021/11/17 09:13:00;;;;;;;4.37;2.20;;;10.40;73.10;;;;;;2357778;53;20938;-71
2021/11/17 09:15:29;;;;;;;4.78;2.37;;;10.50;73.30;;;;;;2347870;53;20951;-71
2021/11/17 09:17:55;;;;;;;4.32;2.40;;;10.50;73.30;;;;;;2364855;53;20955;-71
2021/11/17 09:20:22;;;;;;;4.72;2.50;;;10.50;73.30;;;;;;2364489;54;20947;-71
2021/11/17 09:22:49;;;;;;;6.25;3.25;;;10.50;73.30;;;;;;2365719;53;21144;-71
2021/11/17 09:25:15;;;;;;;5.57;2.83;;;10.60;73.40;;;;;;2366297;53;20987;-70
2021/11/17 09:27:41;;;;;;;5.15;2.55;;;10.60;73.40;;;;;;2367255;53;20955;-71
2021/11/17 09:30:10;;;;;;;5.87;2.70;;;10.60;73.40;;;;;;2618218;52;20963;-71
2021/11/17 09:32:39;;;;;;;6.60;3.30;;;10.60;73.30;;;;;;2329477;54;20940;-71
2021/11/17 09:35:08;;;;;;;6.25;3.47;;;10.60;73.30;;;;;;2588782;52;21023;-71
2021/11/17 09:37:35;;;;;;;9.65;4.78;;;10.60;73.20;;;;;;2344357;54;20983;-70
2021/11/17 09:40:05;;;;;;;8.18;4.47;;;10.70;73.40;;;;;;2585756;53;20933;-71
2021/11/17 09:42:32;;;;;;;7.37;3.45;;;10.70;73.50;;;;;;2341376;53;20923;-71
2021/11/17 09:44:59;;;;;;;6.05;3.30;;;10.70;73.60;;;;;;2342228;53;21012;-71
2021/11/17 09:47:28;;;;;;;5.72;3.33;;;10.90;73.70;;;;;;2345420;54;20961;-71
2021/11/17 09:50:07;;;;;;;6.43;3.97;;;10.80;73.60;;;;;;2338909;53;21393;-71
2021/11/17 09:52:40;;;;;;;6.00;3.35;;;10.80;73.20;;;;;;2343189;54;20879;-71
2021/11/17 09:55:28;;;;;;;4.75;2.83;;;10.80;73.40;;;;;;2589002;53;20928;-71
2021/11/17 09:58:06;;;;;;;5.15;2.83;;;10.90;73.10;;;;;;2344665;53;21029;-70
2021/11/17 10:00:54;;;;;;;4.43;2.37;;;10.90;73.00;;;;;;2336939;53;21022;-71
2021/11/17 10:03:36;;;;;;;5.30;2.80;;;10.90;72.50;;;;;;2583602;53;20996;-71
2021/11/17 10:07:01;;;;;;;4.72;2.45;;;10.90;72.60;;;;;;2341454;54;20899;-71
2021/11/17 10:15:43;;;;;;;3.42;1.92;;;10.90;72.60;;;;;;2370281;53;20906;-71
2021/11/17 10:19:43;;;;;;;4.12;1.95;;;11.00;73.10;;;;;;2368941;53;21926;-71
2021/11/17 10:22:11;;;;;;;4.15;2.35;;;11.00;72.40;;;;;;2323991;53;21020;-71
2021/11/17 10:24:52;;;;;;;4.30;2.28;;;11.00;73.50;;;;;;2588855;52;20873;-71
2021/11/17 10:27:27;;;;;;;4.75;2.58;;;11.00;72.90;;;;;;2592609;52;20947;-71
2021/11/17 10:30:10;;;;;;;6.37;3.05;;;11.10;73.20;;;;;;2355499;53;20960;-71
2021/11/17 10:32:43;;;;;;;5.82;2.53;;;11.10;73.00;;;;;;2353812;53;21061;-71
2021/11/17 10:35:30;;;;;;;5.45;2.70;;;11.10;73.20;;;;;;2592207;52;22265;-71
2021/11/17 10:38:21;;;;;;;5.07;2.60;;;11.10;72.90;;;;;;2353766;53;20980;-70
2021/11/17 10:41:00;;;;;;;3.78;1.90;;;11.10;72.90;;;;;;2562397;53;20981;-71
2021/11/17 10:43:37;;;;;;;4.05;2.20;;;11.20;73.20;;;;;;2346890;53;21119;-71
2021/11/17 10:46:12;;;;;;;4.68;2.25;;;11.20;73.30;;;;;;2349802;53;20944;-71
2021/11/17 10:48:59;;;;;;;4.10;2.25;;;11.20;73.40;;;;;;2350740;53;20984;-70
2021/11/17 10:51:34;;;;;;;3.90;2.22;;;11.30;73.40;;;;;;2618190;52;20977;-70
2021/11/17 10:54:10;;;;;;;4.35;2.50;;;11.30;73.40;;;;;;2348587;53;20949;-70
2021/11/17 10:56:38;;;;;;;5.00;2.70;;;11.30;73.40;;;;;;2346574;53;21444;-70
2021/11/17 10:59:08;;;;;;;4.53;2.28;;;11.30;73.30;;;;;;2352180;53;20895;-70
2021/11/17 11:01:43;;;;;;;4.15;2.12;;;11.40;73.20;;;;;;2605880;52;20943;-70
2021/11/17 11:04:54;;;;;;;4.18;2.12;;;11.40;73.10;;;;;;2600552;52;20929;-70
2021/11/17 11:07:31;;;;;;;4.45;1.52;;;11.40;72.10;;;;;;2601192;52;21003;-71
2021/11/17 11:10:48;;;;;;;3.78;2.00;;;11.40;72.80;;;;;;2367973;54;20972;-71
2021/11/17 11:13:33;;;;;;;4.87;2.15;;;11.50;71.50;;;;;;2346809;53;20928;-71
2021/11/17 11:16:09;;;;;;;4.82;2.30;;;11.50;71.90;;;;;;2617365;52;20996;-71
2021/11/17 11:18:53;;;;;;;4.78;2.60;;;11.50;72.20;;;;;;2348440;53;20963;-71
2021/11/17 11:22:21;;;;;;;4.30;2.42;;;11.50;72.10;;;;;;2357685;53;20925;-71
2021/11/17 11:24:49;;;;;;;5.57;2.10;;;11.50;71.50;;;;;;2618337;52;20972;-70
2021/11/17 11:27:44;;;;;;;4.90;2.50;;;11.40;72.10;;;;;;2613388;52;21067;-70
2021/11/17 11:30:34;;;;;;;4.85;2.67;;;11.40;71.90;;;;;;2352147;53;20999;-71
2021/11/17 11:33:26;;;;;;;5.37;2.65;;;11.40;71.80;;;;;;2351905;53;20928;-71
2021/11/17 11:42:59;;;;;;;4.97;2.30;;;11.40;71.90;;;;;;2347683;53;21004;-70
2021/11/17 11:45:39;;;;;;;5.53;2.67;;;11.50;71.50;;;;;;2589927;52;21018;-70
2021/11/17 11:48:08;;;;;;;5.93;2.65;;;11.50;71.80;;;;;;2617159;52;20999;-69
2021/11/17 11:50:47;;;;;;;4.90;2.75;;;11.40;72.10;;;;;;2343935;53;20956;-71
2021/11/17 11:53:34;;;;;;;8.05;2.92;;;11.40;71.60;;;;;;2365833;54;20935;-71
2021/11/17 11:56:20;;;;;;;6.22;2.97;;;11.40;72.00;;;;;;2338996;54;21032;-71
2021/11/17 11:58:47;;;;;;;6.68;3.50;;;11.40;72.10;;;;;;2607946;52;21454;-71
2021/11/17 12:01:24;;;;;;;4.70;2.83;;;11.30;72.00;;;;;;2364563;53;20980;-71
2021/11/17 12:03:56;;;;;;;4.18;2.35;;;11.30;72.00;;;;;;2366354;54;20979;-71
2021/11/17 12:06:35;;;;;;;5.00;2.65;;;11.30;72.30;;;;;;2612932;52;21565;-71
2021/11/17 12:09:17;;;;;;;5.85;2.58;;;11.30;72.10;;;;;;2569769;52;20928;-71
2021/11/17 12:12:16;;;;;;;4.47;2.47;;;11.40;72.00;;;;;;2362853;53;20985;-71
2021/11/17 12:14:49;;;;;;;4.20;2.10;;;11.40;71.90;;;;;;2592264;52;20977;-71
2021/11/17 12:17:26;;;;;;;4.15;2.35;;;11.40;72.60;;;;;;2587783;52;20956;-71
2021/11/17 12:19:56;;;;;;;4.25;2.00;;;11.40;72.60;;;;;;2594762;52;21074;-72
2021/11/17 12:22:41;;;;;;;3.50;1.80;;;11.40;72.80;;;;;;2345408;53;21469;-71
2021/11/17 12:25:30;;;;;;;2.97;1.30;;;11.40;72.20;;;;;;2365266;54;21047;-71
2021/11/17 12:28:05;;;;;;;3.03;1.40;;;11.50;71.90;;;;;;2598283;52;20971;-71
2021/11/17 12:31:06;;;;;;;2.42;1.20;;;11.50;72.40;;;;;;2352779;53;20944;-71
2021/11/17 12:34:08;;;;;;;2.67;1.27;;;11.60;72.10;;;;;;2335896;54;21489;-71
2021/11/17 12:36:56;;;;;;;2.08;0.90;;;11.50;71.70;;;;;;2589440;52;20935;-71
2021/11/17 12:39:29;;;;;;;2.75;1.20;;;11.60;71.80;;;;;;2363232;53;20984;-71
2021/11/17 12:41:57;;;;;;;2.45;1.10;;;11.60;72.40;;;;;;2583133;53;20924;-71
2021/11/17 12:44:29;;;;;;;2.78;0.93;;;11.60;72.30;;;;;;2613159;52;20985;-70
2021/11/17 12:49:28;;;;;;;2.03;0.80;;;11.60;72.10;;;;;;2616254;52;21011;-71
2021/11/17 12:52:41;;;;;;;1.35;0.70;;;11.60;70.70;;;;;;2615884;52;21848;-71
2021/11/17 12:55:19;;;;;;;3.10;1.40;;;11.60;70.80;;;;;;2327335;54;20985;-71
2021/11/17 12:58:08;;;;;;;2.62;1.40;;;11.60;71.40;;;;;;2561096;53;20967;-71
2021/11/17 13:00:44;;;;;;;2.92;1.50;;;11.50;70.70;;;;;;2572232;53;20993;-70
2021/11/17 13:03:24;;;;;;;3.60;1.73;;;11.60;71.50;;;;;;2521121;54;21534;-71
2021/11/17 13:06:09;;;;;;;3.05;1.45;;;11.60;71.10;;;;;;2577390;53;21310;-70
2021/11/17 13:08:39;;;;;;;2.58;1.17;;;11.60;71.10;;;;;;2576138;52;21049;-70
2021/11/17 13:11:20;;;;;;;2.60;1.30;;;11.50;71.60;;;;;;2557609;53;21556;-70
2021/11/17 13:13:58;;;;;;;2.10;0.90;;;11.50;70.90;;;;;;2329650;54;21599;-71
2021/11/17 13:16:34;;;;;;;2.05;0.88;;;11.50;71.40;;;;;;2588854;52;20960;-69
2021/11/17 13:19:06;;;;;;;2.58;1.15;;;11.50;71.50;;;;;;2593571;52;20947;-71
2021/11/17 13:21:37;;;;;;;2.72;1.20;;;11.60;71.30;;;;;;2617455;52;21510;-71
2021/11/17 13:24:43;;;;;;;2.58;0.90;;;11.50;71.20;;;;;;2596463;52;20981;-70
2021/11/17 13:28:05;;;;;;;2.10;0.95;;;11.50;71.00;;;;;;2604151;52;21008;-70
2021/11/17 13:30:48;;;;;;;3.05;1.37;;;11.50;70.70;;;;;;2592567;52;20917;-71
2021/11/17 13:33:25;;;;;;;2.75;1.42;;;11.40;70.80;;;;;;2592922;52;21004;-71
2021/11/17 13:36:13;;;;;;;2.37;1.15;;;11.40;70.80;;;;;;2338725;53;20955;-71
2021/11/17 13:38:57;;;;;;;2.33;1.10;;;11.40;70.40;;;;;;2599851;52;21006;-71
2021/11/17 13:41:36;;;;;;;2.50;1.25;;;11.40;71.50;;;;;;2602887;52;20949;-71
2021/11/17 13:44:04;;;;;;;2.50;1.20;;;11.40;71.40;;;;;;2621518;52;20953;-70
2021/11/17 13:46:31;;;;;;;3.08;1.40;;;11.40;71.50;;;;;;2622136;52;20946;-71
2021/11/17 13:48:57;;;;;;;1.85;1.00;;;11.40;71.40;;;;;;2601076;52;21577;-70
2021/11/17 13:51:26;;;;;;;2.28;0.90;;;11.40;71.40;;;;;;2350273;53;21419;-71
2021/11/17 13:53:54;;;;;;;2.40;0.88;;;11.30;71.30;;;;;;2595399;52;20961;-71
2021/11/17 13:56:32;;;;;;;1.70;0.70;;;11.30;71.40;;;;;;2599113;52;21569;-71
2021/11/17 13:58:59;;;;;;;2.45;1.00;;;11.40;71.50;;;;;;2593820;52;21783;-71
2021/11/17 14:01:25;;;;;;;1.90;0.80;;;11.30;71.50;;;;;;2621010;52;20945;-71
2021/11/17 14:03:53;;;;;;;1.48;0.57;;;11.30;71.50;;;;;;2369031;53;20922;-71
2021/11/17 14:06:20;;;;;;;1.80;0.65;;;11.30;71.50;;;;;;2614855;52;21931;-71
2021/11/17 14:08:47;;;;;;;1.87;0.80;;;11.30;71.60;;;;;;2591265;52;20937;-71
2021/11/17 14:11:15;;;;;;;2.10;0.90;;;11.40;71.70;;;;;;2360236;53;21477;-71
2021/11/17 14:13:46;;;;;;;2.10;0.90;;;11.30;71.30;;;;;;2621861;52;21100;-69
2021/11/17 14:16:13;;;;;;;2.10;1.00;;;11.30;71.00;;;;;;2621821;52;20998;-71
2021/11/17 14:18:41;;;;;;;2.30;0.80;;;11.30;71.20;;;;;;2601036;52;20997;-70
2021/11/17 14:21:09;;;;;;;2.42;0.90;;;11.30;71.20;;;;;;2354683;53;21406;-71
2021/11/17 14:23:37;;;;;;;2.15;0.90;;;11.30;71.20;;;;;;2600720;52;20952;-70
2021/11/17 14:26:05;;;;;;;2.30;1.10;;;11.30;71.20;;;;;;2354606;53;20921;-71
2021/11/17 14:28:35;;;;;;;1.50;0.75;;;11.30;71.20;;;;;;2566388;53;20969;-71
2021/11/17 14:31:11;;;;;;;1.98;0.82;;;11.30;71.10;;;;;;2561810;53;21653;-71
2021/11/17 14:33:37;;;;;;;1.87;0.80;;;11.30;71.10;;;;;;2621754;52;20942;-70
2021/11/17 14:36:10;;;;;;;2.75;1.00;;;11.10;71.00;;;;;;2622040;52;20921;-70
2021/11/17 14:38:37;;;;;;;2.28;1.05;;;11.30;71.20;;;;;;2621930;52;20989;-70
2021/11/17 14:41:10;;;;;;;2.15;0.90;;;11.30;71.20;;;;;;2368689;53;20926;-70
2021/11/17 14:43:38;;;;;;;2.33;1.00;;;11.30;71.30;;;;;;2606823;52;20937;-70
2021/11/17 14:46:05;;;;;;;2.08;0.90;;;11.30;71.20;;;;;;2607376;52;21082;-71
2021/11/17 14:48:32;;;;;;;2.78;0.93;;;11.40;71.20;;;;;;2566068;53;21462;-71
2021/11/17 14:50:59;;;;;;;2.22;1.02;;;11.40;71.30;;;;;;2620742;52;20894;-71
2021/11/17 14:53:39;;;;;;;3.47;1.20;;;11.30;71.20;;;;;;2598248;52;20969;-71
2021/11/17 14:56:06;;;;;;;2.80;1.27;;;11.30;71.20;;;;;;2600241;52;20929;-70
2021/11/17 14:58:38;;;;;;;2.37;1.10;;;11.40;71.20;;;;;;2325698;54;20944;-70
2021/11/17 15:01:08;;;;;;;4.45;1.20;;;11.30;71.00;;;;;;2621598;52;20934;-70
2021/11/17 15:03:35;;;;;;;2.45;1.10;;;11.30;70.80;;;;;;2568223;53;20957;-70
2021/11/17 15:06:01;;;;;;;2.50;1.27;;;11.30;70.80;;;;;;2613151;52;21568;-71
2021/11/17 15:08:29;;;;;;;3.08;1.48;;;11.30;70.90;;;;;;2622920;52;21013;-71
2021/11/17 15:10:55;;;;;;;3.58;1.70;;;11.30;71.00;;;;;;2605293;52;21053;-70
2021/11/17 15:13:23;;;;;;;3.10;1.50;;;11.30;70.90;;;;;;2610939;52;20940;-71
2021/11/17 15:15:49;;;;;;;3.25;1.60;;;11.40;70.80;;;;;;2592608;52;20958;-70
2021/11/17 15:18:20;;;;;;;4.00;1.40;;;11.30;70.70;;;;;;2608434;52;21073;-71
2021/11/17 15:20:46;;;;;;;3.55;1.42;;;11.20;70.60;;;;;;2359396;53;20973;-70
2021/11/17 15:23:14;;;;;;;2.90;1.45;;;11.20;70.60;;;;;;2593119;52;21001;-71
2021/11/17 15:25:41;;;;;;;3.05;1.50;;;11.20;70.80;;;;;;2608624;52;20991;-71
2021/11/17 15:30:00;;;;;;;4.57;1.90;;;11.20;70.80;;;;;;2587663;52;21417;-69
2021/11/17 15:32:27;;;;;;;3.15;1.60;;;11.20;69.40;;;;;;2600761;52;20992;-70
2021/11/17 15:34:54;;;;;;;3.15;1.37;;;11.20;70.90;;;;;;2358401;53;21395;-71
2021/11/17 15:37:20;;;;;;;3.42;1.70;;;11.10;70.90;;;;;;2370429;53;21433;-70
2021/11/17 15:39:47;;;;;;;3.40;1.85;;;11.10;70.90;;;;;;2621515;52;21697;-70
2021/11/17 15:42:14;;;;;;;4.03;1.80;;;11.10;71.10;;;;;;2621533;52;20918;-69
2021/11/17 15:44:40;;;;;;;6.18;2.20;;;11.10;71.10;;;;;;2346038;53;21973;-71
2021/11/17 15:47:08;;;;;;;4.18;2.30;;;11.10;71.20;;;;;;2334304;53;21380;-71
2021/11/17 15:49:38;;;;;;;4.32;2.50;;;11.10;71.30;;;;;;2587210;53;20926;-70
2021/11/17 15:52:08;;;;;;;4.05;1.95;;;11.10;71.20;;;;;;2587130;53;20955;-71
2021/11/17 15:54:35;;;;;;;3.17;1.62;;;11.10;71.20;;;;;;2560072;53;20907;-70
2021/11/17 15:57:02;;;;;;;3.17;1.50;;;11.10;71.20;;;;;;2586930;53;21557;-71
2021/11/17 15:59:29;;;;;;;3.03;1.50;;;11.10;71.30;;;;;;2614391;52;21545;-71
2021/11/17 16:01:56;;;;;;;2.67;1.45;;;11.00;71.30;;;;;;2340683;53;21028;-70
2021/11/17 16:04:23;;;;;;;3.17;1.67;;;11.10;71.40;;;;;;2583868;53;20985;-70
2021/11/17 16:06:55;;;;;;;3.40;1.77;;;11.10;71.50;;;;;;2590664;52;20919;-71
2021/11/17 16:09:22;;;;;;;2.87;1.30;;;11.00;71.30;;;;;;2563516;52;20912;-70
2021/11/17 16:11:48;;;;;;;4.72;1.60;;;11.00;71.30;;;;;;2595421;52;20981;-69
2021/11/17 16:14:19;;;;;;;3.50;1.55;;;11.00;71.30;;;;;;2594498;52;21009;-70
2021/11/17 16:16:46;;;;;;;3.50;1.45;;;11.00;71.10;;;;;;2305260;54;20999;-70
2021/11/17 16:19:13;;;;;;;3.12;1.42;;;11.00;71.10;;;;;;2578785;53;20957;-70
2021/11/17 16:21:41;;;;;;;2.53;1.27;;;11.00;71.20;;;;;;2587756;52;20919;-70
2021/11/17 16:26:52;;;;;;;3.20;1.37;;;11.00;71.30;;;;;;2581133;52;21741;-71
2021/11/17 16:29:20;;;;;;;2.37;1.10;;;11.00;71.20;;;;;;2565730;53;21032;-70
2021/11/17 16:31:47;;;;;;;3.55;1.73;;;11.00;71.40;;;;;;2339679;53;20993;-70
2021/11/17 16:34:16;;;;;;;3.20;1.60;;;11.00;71.40;;;;;;2613966;52;21019;-70
2021/11/17 16:36:45;;;;;;;3.53;1.58;;;11.00;71.50;;;;;;2356825;53;20914;-71
2021/11/17 16:39:13;;;;;;;2.83;1.40;;;11.00;71.50;;;;;;2594513;52;21584;-70
2021/11/17 16:41:39;;;;;;;4.30;2.05;;;11.00;71.40;;;;;;2586887;52;21003;-70
2021/11/17 16:44:07;;;;;;;2.47;1.20;;;10.90;71.20;;;;;;2609904;52;21047;-69
2021/11/17 16:46:37;;;;;;;3.40;1.60;;;11.00;71.40;;;;;;2615845;52;21522;-70
2021/11/17 16:49:13;;;;;;;3.62;1.80;;;10.90;71.30;;;;;;2589473;52;20999;-71
2021/11/17 16:51:40;;;;;;;5.20;1.70;;;10.90;71.30;;;;;;2605981;52;20994;-71
2021/11/17 16:54:08;;;;;;;3.65;1.67;;;10.90;71.40;;;;;;2616160;52;21401;-70
2021/11/17 16:56:34;;;;;;;4.10;1.90;;;10.90;71.50;;;;;;2351301;53;20968;-69
2021/11/17 16:59:01;;;;;;;4.05;2.17;;;10.90;71.50;;;;;;2588874;52;20994;-70
2021/11/17 17:01:28;;;;;;;4.07;1.75;;;10.90;71.40;;;;;;2610475;52;20963;-70
2021/11/17 17:03:54;;;;;;;5.15;1.87;;;10.90;71.50;;;;;;2615329;52;21834;-69
2021/11/17 17:06:22;;;;;;;4.60;1.42;;;10.90;71.50;;;;;;2340505;54;21019;-69
2021/11/17 17:08:49;;;;;;;4.40;1.70;;;10.90;71.40;;;;;;2586842;53;21015;-70
2021/11/17 17:11:15;;;;;;;3.78;1.75;;;10.90;71.40;;;;;;2342029;53;21109;-71
2021/11/17 17:13:45;;;;;;;4.40;1.70;;;10.90;71.40;;;;;;2583493;53;21711;-70
2021/11/17 17:16:11;;;;;;;4.45;1.55;;;10.90;71.20;;;;;;2584540;53;20953;-70
2021/11/17 17:18:39;;;;;;;3.03;1.42;;;10.70;71.20;;;;;;2585095;53;20912;-69
2021/11/17 17:21:09;;;;;;;3.35;1.67;;;10.90;71.50;;;;;;2340123;53;20999;-70
2021/11/17 17:23:40;;;;;;;4.57;2.20;;;10.90;71.50;;;;;;2585904;53;20993;-70
2021/11/17 17:26:07;;;;;;;3.80;1.70;;;10.90;71.50;;;;;;2569220;52;20915;-70
2021/11/17 17:28:34;;;;;;;3.97;2.08;;;10.90;71.50;;;;;;2615282;52;22116;-70
2021/11/17 17:31:02;;;;;;;2.90;1.33;;;10.90;71.50;;;;;;2338374;53;21012;-70
2021/11/17 17:33:29;;;;;;;3.25;1.52;;;10.90;71.40;;;;;;2569218;53;20975;-71